sensor_id;sensor_type;location;lat;lon;timestamp;P1;P2;P0
44871;PMS7003;30602;51.060;17.226;2023-05-10T00:02:08;17;17;12
44871;PMS7003;30602;51.060;17.226;2023-05-10T00:06:21;17;15;13
44871;PMS7003;30602;51.060;17.226;2023-05-10T00:10:11;17;14;11
44871;PMS7003;30602;51.060;17.226;2023-05-10T00:13:30;14;14;11
44871;PMS7003;30602;51.060;17.226;2023-05-10T00:17:36;17;16;11
44871;PMS7003;30602;51.060;17.226;2023-05-10T00:20:58;17;15;13
44871;PMS7003;30602;51.060;17.226;2023-05-10T00:25:10;20;16;13
44871;PMS7003;30602;51.060;17.226;2023-05-10T00:29:26;17;15;11
44871;PMS7003;30602;51.060;17.226;2023-05-10T00:33:42;17;13;10
44871;PMS7003;30602;51.060;17.226;2023-05-10T00:37:20;19;17;12
44871;PMS7003;30602;51.060;17.226;2023-05-10T00:41:15;18;16;11
44871;PMS7003;30602;51.060;17.226;2023-05-10T00:45:04;16;15;11
44871;PMS7003;30602;51.060;17.226;2023-05-10T00:48:48;21;16;12
44871;PMS7003;30602;51.060;17.226;2023-05-10T00:52:29;15;14;11
44871;PMS7003;30602;51.060;17.226;2023-05-10T00:56:24;17;14;12
44871;PMS7003;30602;51.060;17.226;2023-05-10T01:00:01;19;18;13
44871;PMS7003;30602;51.060;17.226;2023-05-10T01:03:21;16;14;11
44871;PMS7003;30602;51.060;17.226;2023-05-10T01:06:49;18;14;11
44871;PMS7003;30602;51.060;17.226;2023-05-10T01:11:20;17;16;13
44871;PMS7003;30602;51.060;17.226;2023-05-10T01:15:23;16;15;11
44871;PMS7003;30602;51.060;17.226;2023-05-10T01:18:45;16;13;11
44871;PMS7003;30602;51.060;17.226;2023-05-10T01:22:11;17;16;12
44871;PMS7003;30602;51.060;17.226;2023-05-10T01:34:19;18;15;12
44871;PMS7003;30602;51.060;17.226;2023-05-10T01:45:31;19;16;13
44871;PMS7003;30602;51.060;17.226;2023-05-10T01:49:32;16;15;12
44871;PMS7003;30602;51.060;17.226;2023-05-10T01:53:21;16;16;12
44871;PMS7003;30602;51.060;17.226;2023-05-10T01:57:05;19;18;14
44871;PMS7003;30602;51.060;17.226;2023-05-10T02:00:44;16;14;11
44871;PMS7003;30602;51.060;17.226;2023-05-10T02:04:29;18;17;13
44871;PMS7003;30602;51.060;17.226;2023-05-10T02:08:23;19;16;12
44871;PMS7003;30602;51.060;17.226;2023-05-10T02:12:04;18;15;13
44871;PMS7003;30602;51.060;17.226;2023-05-10T02:15:25;18;16;12
44871;PMS7003;30602;51.060;17.226;2023-05-10T02:18:48;18;17;13
44871;PMS7003;30602;51.060;17.226;2023-05-10T02:22:14;20;18;12
44871;PMS7003;30602;51.060;17.226;2023-05-10T02:25:37;19;16;12
44871;PMS7003;30602;51.060;17.226;2023-05-10T02:29:05;18;17;13
44871;PMS7003;30602;51.060;17.226;2023-05-10T02:32:57;20;18;13
44871;PMS7003;30602;51.060;17.226;2023-05-10T02:36:48;13;12;9
44871;PMS7003;30602;51.060;17.226;2023-05-10T02:40:39;18;16;13
44871;PMS7003;30602;51.060;17.226;2023-05-10T02:44:02;18;17;11
44871;PMS7003;30602;51.060;17.226;2023-05-10T02:48:00;18;16;12
44871;PMS7003;30602;51.060;17.226;2023-05-10T02:51:41;19;16;11
44871;PMS7003;30602;51.060;17.226;2023-05-10T02:55:35;13;13;10
44871;PMS7003;30602;51.060;17.226;2023-05-10T02:59:09;18;15;11
44871;PMS7003;30602;51.060;17.226;2023-05-10T03:02:51;19;16;12
44871;PMS7003;30602;51.060;17.226;2023-05-10T03:06:44;16;15;11
44871;PMS7003;30602;51.060;17.226;2023-05-10T03:10:47;14;13;10
44871;PMS7003;30602;51.060;17.226;2023-05-10T03:21:32;18;16;12
44871;PMS7003;30602;51.060;17.226;2023-05-10T03:25:02;19;15;11
44871;PMS7003;30602;51.060;17.226;2023-05-10T03:28:46;12;12;9
44871;PMS7003;30602;51.060;17.226;2023-05-10T03:32:29;20;14;11
44871;PMS7003;30602;51.060;17.226;2023-05-10T03:35:50;11;11;9
44871;PMS7003;30602;51.060;17.226;2023-05-10T03:40:08;15;14;12
44871;PMS7003;30602;51.060;17.226;2023-05-10T03:43:26;17;15;12
44871;PMS7003;30602;51.060;17.226;2023-05-10T03:47:21;19;17;13
44871;PMS7003;30602;51.060;17.226;2023-05-10T03:51:14;15;13;11
44871;PMS7003;30602;51.060;17.226;2023-05-10T03:55:19;18;14;11
44871;PMS7003;30602;51.060;17.226;2023-05-10T03:58:41;14;14;12
44871;PMS7003;30602;51.060;17.226;2023-05-10T04:02:46;18;15;12
44871;PMS7003;30602;51.060;17.226;2023-05-10T04:06:04;23;18;15
44871;PMS7003;30602;51.060;17.226;2023-05-10T04:09:31;20;18;14
44871;PMS7003;30602;51.060;17.226;2023-05-10T04:17:29;15;15;13
44871;PMS7003;30602;51.060;17.226;2023-05-10T04:20:58;19;18;12
44871;PMS7003;30602;51.060;17.226;2023-05-10T04:24:42;15;15;11
44871;PMS7003;30602;51.060;17.226;2023-05-10T04:28:27;18;16;11
44871;PMS7003;30602;51.060;17.226;2023-05-10T04:31:49;19;17;14
44871;PMS7003;30602;51.060;17.226;2023-05-10T04:35:36;17;15;11
44871;PMS7003;30602;51.060;17.226;2023-05-10T04:39:53;14;13;11
44871;PMS7003;30602;51.060;17.226;2023-05-10T04:44:08;13;13;11
44871;PMS7003;30602;51.060;17.226;2023-05-10T04:47:50;24;18;13
44871;PMS7003;30602;51.060;17.226;2023-05-10T04:51:54;18;15;11
44871;PMS7003;30602;51.060;17.226;2023-05-10T04:55:36;15;14;12
44871;PMS7003;30602;51.060;17.226;2023-05-10T04:58:59;15;14;11
44871;PMS7003;30602;51.060;17.226;2023-05-10T05:02:51;17;14;11
44871;PMS7003;30602;51.060;17.226;2023-05-10T05:06:35;16;15;13
44871;PMS7003;30602;51.060;17.226;2023-05-10T05:09:57;14;13;11
44871;PMS7003;30602;51.060;17.226;2023-05-10T05:13:39;15;14;11
44871;PMS7003;30602;51.060;17.226;2023-05-10T05:17:32;17;15;12
44871;PMS7003;30602;51.060;17.226;2023-05-10T05:22:01;14;13;11
44871;PMS7003;30602;51.060;17.226;2023-05-10T05:25:29;19;18;10
44871;PMS7003;30602;51.060;17.226;2023-05-10T05:29:11;16;15;12
44871;PMS7003;30602;51.060;17.226;2023-05-10T05:33:03;16;13;10
44871;PMS7003;30602;51.060;17.226;2023-05-10T05:37:07;13;13;12
44871;PMS7003;30602;51.060;17.226;2023-05-10T05:40:34;15;13;11
44871;PMS7003;30602;51.060;17.226;2023-05-10T05:43:53;13;12;10
44871;PMS7003;30602;51.060;17.226;2023-05-10T05:48:05;15;15;11
44871;PMS7003;30602;51.060;17.226;2023-05-10T05:59:41;16;12;9
44871;PMS7003;30602;51.060;17.226;2023-05-10T06:03:04;16;11;9
44871;PMS7003;30602;51.060;17.226;2023-05-10T06:07:17;12;12;9
44871;PMS7003;30602;51.060;17.226;2023-05-10T06:10:53;15;12;9
44871;PMS7003;30602;51.060;17.226;2023-05-10T06:15:07;14;12;9
44871;PMS7003;30602;51.060;17.226;2023-05-10T06:18:58;12;10;9
44871;PMS7003;30602;51.060;17.226;2023-05-10T06:22:39;11;9;8
44871;PMS7003;30602;51.060;17.226;2023-05-10T06:26:02;10;10;8
44871;PMS7003;30602;51.060;17.226;2023-05-10T06:29:42;12;10;9
44871;PMS7003;30602;51.060;17.226;2023-05-10T06:33:16;9;9;8
44871;PMS7003;30602;51.060;17.226;2023-05-10T06:37:05;12;12;9
44871;PMS7003;30602;51.060;17.226;2023-05-10T06:40:49;13;9;7
44871;PMS7003;30602;51.060;17.226;2023-05-10T06:44:08;11;8;6
44871;PMS7003;30602;51.060;17.226;2023-05-10T06:47:40;10;9;7
44871;PMS7003;30602;51.060;17.226;2023-05-10T06:51:01;10;10;8
44871;PMS7003;30602;51.060;17.226;2023-05-10T06:54:31;7;6;5
44871;PMS7003;30602;51.060;17.226;2023-05-10T06:58:23;10;9;7
44871;PMS7003;30602;51.060;17.226;2023-05-10T07:01:50;12;8;7
44871;PMS7003;30602;51.060;17.226;2023-05-10T07:05:43;9;9;7
44871;PMS7003;30602;51.060;17.226;2023-05-10T07:09:20;10;9;7
44871;PMS7003;30602;51.060;17.226;2023-05-10T07:13:03;9;8;6
44871;PMS7003;30602;51.060;17.226;2023-05-10T07:17:36;12;10;8
44871;PMS7003;30602;51.060;17.226;2023-05-10T07:21:07;10;8;8
44871;PMS7003;30602;51.060;17.226;2023-05-10T07:24:23;7;7;6
44871;PMS7003;30602;51.060;17.226;2023-05-10T07:28:04;13;8;7
44871;PMS7003;30602;51.060;17.226;2023-05-10T07:31:51;8;7;6
44871;PMS7003;30602;51.060;17.226;2023-05-10T07:35:34;8;7;6
44871;PMS7003;30602;51.060;17.226;2023-05-10T07:39:18;8;7;6
44871;PMS7003;30602;51.060;17.226;2023-05-10T07:42:57;7;6;5
44871;PMS7003;30602;51.060;17.226;2023-05-10T07:46:48;9;7;6
44871;PMS7003;30602;51.060;17.226;2023-05-10T07:56:46;11;9;6
44871;PMS7003;30602;51.060;17.226;2023-05-10T08:00:07;7;7;6
44871;PMS7003;30602;51.060;17.226;2023-05-10T08:03:47;9;9;7
44871;PMS7003;30602;51.060;17.226;2023-05-10T08:07:31;8;8;7
44871;PMS7003;30602;51.060;17.226;2023-05-10T08:10:59;9;6;5
44871;PMS7003;30602;51.060;17.226;2023-05-10T08:14:21;12;9;7
44871;PMS7003;30602;51.060;17.226;2023-05-10T08:18:33;9;8;7
44871;PMS7003;30602;51.060;17.226;2023-05-10T08:22:45;10;8;6
44871;PMS7003;30602;51.060;17.226;2023-05-10T08:26:21;8;7;5
44871;PMS7003;30602;51.060;17.226;2023-05-10T08:34:08;9;7;6
44871;PMS7003;30602;51.060;17.226;2023-05-10T08:37:54;8;7;5
44871;PMS7003;30602;51.060;17.226;2023-05-10T08:41:13;8;6;6
44871;PMS7003;30602;51.060;17.226;2023-05-10T08:44:51;6;6;5
44871;PMS7003;30602;51.060;17.226;2023-05-10T08:48:34;8;6;5
44871;PMS7003;30602;51.060;17.226;2023-05-10T08:52:16;6;6;4
44871;PMS7003;30602;51.060;17.226;2023-05-10T08:55:37;8;5;4
44871;PMS7003;30602;51.060;17.226;2023-05-10T08:59:12;9;6;5
44871;PMS7003;30602;51.060;17.226;2023-05-10T09:03:04;7;6;4
44871;PMS7003;30602;51.060;17.226;2023-05-10T09:10:16;4;4;3
44871;PMS7003;30602;51.060;17.226;2023-05-10T09:14:30;4;4;3
44871;PMS7003;30602;51.060;17.226;2023-05-10T09:18:07;5;5;4
44871;PMS7003;30602;51.060;17.226;2023-05-10T09:21:39;5;4;4
44871;PMS7003;30602;51.060;17.226;2023-05-10T09:29:16;9;7;5
44871;PMS7003;30602;51.060;17.226;2023-05-10T09:32:40;7;6;5
44871;PMS7003;30602;51.060;17.226;2023-05-10T09:36:14;6;5;4
44871;PMS7003;30602;51.060;17.226;2023-05-10T09:39:54;8;6;5
44871;PMS7003;30602;51.060;17.226;2023-05-10T09:43:43;7;7;6
44871;PMS7003;30602;51.060;17.226;2023-05-10T09:47:33;6;5;4
44871;PMS7003;30602;51.060;17.226;2023-05-10T09:51:20;5;5;5
44871;PMS7003;30602;51.060;17.226;2023-05-10T09:54:45;6;6;6
44871;PMS7003;30602;51.060;17.226;2023-05-10T09:58:12;9;4;4
44871;PMS7003;30602;51.060;17.226;2023-05-10T10:01:56;7;5;4
44871;PMS7003;30602;51.060;17.226;2023-05-10T10:05:38;5;5;4
44871;PMS7003;30602;51.060;17.226;2023-05-10T10:09:42;7;7;5
44871;PMS7003;30602;51.060;17.226;2023-05-10T10:13:15;8;8;6
44871;PMS7003;30602;51.060;17.226;2023-05-10T10:17:43;6;6;5
44871;PMS7003;30602;51.060;17.226;2023-05-10T10:21:34;5;4;3
44871;PMS7003;30602;51.060;17.226;2023-05-10T10:25:12;6;6;5
44871;PMS7003;30602;51.060;17.226;2023-05-10T10:32:25;5;5;4
44871;PMS7003;30602;51.060;17.226;2023-05-10T10:35:52;6;6;5
44871;PMS7003;30602;51.060;17.226;2023-05-10T10:39:36;5;5;4
44871;PMS7003;30602;51.060;17.226;2023-05-10T10:55:37;5;5;4
44871;PMS7003;30602;51.060;17.226;2023-05-10T10:59:35;7;5;4
44871;PMS7003;30602;51.060;17.226;2023-05-10T11:02:58;8;5;5
44871;PMS7003;30602;51.060;17.226;2023-05-10T11:06:35;8;6;5
44871;PMS7003;30602;51.060;17.226;2023-05-10T11:10:05;5;5;4
44871;PMS7003;30602;51.060;17.226;2023-05-10T11:20:52;4;4;3
44871;PMS7003;30602;51.060;17.226;2023-05-10T11:24:55;5;4;4
44871;PMS7003;30602;51.060;17.226;2023-05-10T11:28:26;5;5;4
44871;PMS7003;30602;51.060;17.226;2023-05-10T11:32:07;8;6;5
44871;PMS7003;30602;51.060;17.226;2023-05-10T11:35:45;5;4;4
44871;PMS7003;30602;51.060;17.226;2023-05-10T11:39:19;8;5;4
44871;PMS7003;30602;51.060;17.226;2023-05-10T11:42:58;5;5;5
44871;PMS7003;30602;51.060;17.226;2023-05-10T11:47:02;5;4;3
44871;PMS7003;30602;51.060;17.226;2023-05-10T11:50:43;5;5;4
44871;PMS7003;30602;51.060;17.226;2023-05-10T11:54:07;3;3;3
44871;PMS7003;30602;51.060;17.226;2023-05-10T11:57:53;5;5;5
44871;PMS7003;30602;51.060;17.226;2023-05-10T12:01:44;5;4;4
44871;PMS7003;30602;51.060;17.226;2023-05-10T12:05:25;4;4;4
44871;PMS7003;30602;51.060;17.226;2023-05-10T12:09:07;6;5;4
44871;PMS7003;30602;51.060;17.226;2023-05-10T12:12:49;5;5;5
44871;PMS7003;30602;51.060;17.226;2023-05-10T12:16:37;3;3;2
44871;PMS7003;30602;51.060;17.226;2023-05-10T12:20:18;4;4;4
44871;PMS7003;30602;51.060;17.226;2023-05-10T12:24:21;5;5;4
44871;PMS7003;30602;51.060;17.226;2023-05-10T12:27:56;6;5;5
44871;PMS7003;30602;51.060;17.226;2023-05-10T12:31:48;4;4;3
44871;PMS7003;30602;51.060;17.226;2023-05-10T12:35:07;4;4;4
44871;PMS7003;30602;51.060;17.226;2023-05-10T12:38:27;5;4;4
44871;PMS7003;30602;51.060;17.226;2023-05-10T12:41:57;3;3;3
44871;PMS7003;30602;51.060;17.226;2023-05-10T12:45:39;6;4;3
44871;PMS7003;30602;51.060;17.226;2023-05-10T12:49:13;5;4;4
44871;PMS7003;30602;51.060;17.226;2023-05-10T12:53:05;6;4;4
44871;PMS7003;30602;51.060;17.226;2023-05-10T12:57:07;4;4;3
44871;PMS7003;30602;51.060;17.226;2023-05-10T13:01:11;3;3;3
44871;PMS7003;30602;51.060;17.226;2023-05-10T13:04:55;4;4;3
44871;PMS7003;30602;51.060;17.226;2023-05-10T13:08:48;4;4;3
44871;PMS7003;30602;51.060;17.226;2023-05-10T13:16:26;3;3;3
44871;PMS7003;30602;51.060;17.226;2023-05-10T13:19:49;4;4;3
44871;PMS7003;30602;51.060;17.226;2023-05-10T13:23:31;4;3;2
44871;PMS7003;30602;51.060;17.226;2023-05-10T13:27:34;3;3;2
44871;PMS7003;30602;51.060;17.226;2023-05-10T13:31:04;4;4;3
44871;PMS7003;30602;51.060;17.226;2023-05-10T13:34:55;6;5;4
44871;PMS7003;30602;51.060;17.226;2023-05-10T13:38:32;3;3;3
44871;PMS7003;30602;51.060;17.226;2023-05-10T13:42:11;3;3;3
44871;PMS7003;30602;51.060;17.226;2023-05-10T13:45:52;3;3;3
44871;PMS7003;30602;51.060;17.226;2023-05-10T13:49:45;3;3;3
44871;PMS7003;30602;51.060;17.226;2023-05-10T13:53:26;3;3;3
44871;PMS7003;30602;51.060;17.226;2023-05-10T13:56:49;4;4;4
44871;PMS7003;30602;51.060;17.226;2023-05-10T14:00:42;3;3;2
44871;PMS7003;30602;51.060;17.226;2023-05-10T14:04:24;6;4;4
44871;PMS7003;30602;51.060;17.226;2023-05-10T14:07:54;3;3;2
44871;PMS7003;30602;51.060;17.226;2023-05-10T14:11:13;3;3;2
44871;PMS7003;30602;51.060;17.226;2023-05-10T14:14:44;4;2;2
44871;PMS7003;30602;51.060;17.226;2023-05-10T14:18:10;3;3;3
44871;PMS7003;30602;51.060;17.226;2023-05-10T14:21:41;4;3;2
44871;PMS7003;30602;51.060;17.226;2023-05-10T14:25:00;4;3;3
44871;PMS7003;30602;51.060;17.226;2023-05-10T14:28:53;4;4;4
44871;PMS7003;30602;51.060;17.226;2023-05-10T14:32:13;4;4;3
44871;PMS7003;30602;51.060;17.226;2023-05-10T14:36:17;4;4;3
44871;PMS7003;30602;51.060;17.226;2023-05-10T14:39:55;4;3;3
44871;PMS7003;30602;51.060;17.226;2023-05-10T14:43:45;4;4;3
44871;PMS7003;30602;51.060;17.226;2023-05-10T14:47:28;3;3;3
44871;PMS7003;30602;51.060;17.226;2023-05-10T14:51:22;5;4;4
44871;PMS7003;30602;51.060;17.226;2023-05-10T14:54:58;4;4;3
44871;PMS7003;30602;51.060;17.226;2023-05-10T14:58:40;4;4;3
44871;PMS7003;30602;51.060;17.226;2023-05-10T15:02:13;5;5;5
44871;PMS7003;30602;51.060;17.226;2023-05-10T15:05:54;5;5;4
44871;PMS7003;30602;51.060;17.226;2023-05-10T15:09:27;4;4;3
44871;PMS7003;30602;51.060;17.226;2023-05-10T15:13:03;4;4;4
44871;PMS7003;30602;51.060;17.226;2023-05-10T15:16:21;3;3;2
44871;PMS7003;30602;51.060;17.226;2023-05-10T15:19:40;4;3;3
44871;PMS7003;30602;51.060;17.226;2023-05-10T15:22:59;5;4;3
44871;PMS7003;30602;51.060;17.226;2023-05-10T15:26:21;3;3;2
44871;PMS7003;30602;51.060;17.226;2023-05-10T15:30:02;3;2;2
44871;PMS7003;30602;51.060;17.226;2023-05-10T15:33:24;3;3;3
44871;PMS7003;30602;51.060;17.226;2023-05-10T15:37:03;5;4;3
44871;PMS7003;30602;51.060;17.226;2023-05-10T15:40:57;5;4;3
44871;PMS7003;30602;51.060;17.226;2023-05-10T15:45:03;3;3;2
44871;PMS7003;30602;51.060;17.226;2023-05-10T15:48:33;3;3;3
44871;PMS7003;30602;51.060;17.226;2023-05-10T15:52:19;4;2;2
44871;PMS7003;30602;51.060;17.226;2023-05-10T15:56:24;7;4;3
44871;PMS7003;30602;51.060;17.226;2023-05-10T15:59:53;6;5;5
44871;PMS7003;30602;51.060;17.226;2023-05-10T16:03:55;7;5;4
44871;PMS7003;30602;51.060;17.226;2023-05-10T16:07:17;4;4;4
44871;PMS7003;30602;51.060;17.226;2023-05-10T16:10:59;9;5;4
44871;PMS7003;30602;51.060;17.226;2023-05-10T16:14:41;8;6;5
44871;PMS7003;30602;51.060;17.226;2023-05-10T16:17:59;7;6;6
44871;PMS7003;30602;51.060;17.226;2023-05-10T16:22:05;6;5;5
44871;PMS7003;30602;51.060;17.226;2023-05-10T16:26:18;8;6;6
44871;PMS7003;30602;51.060;17.226;2023-05-10T16:29:55;7;5;5
44871;PMS7003;30602;51.060;17.226;2023-05-10T16:33:20;7;5;5
44871;PMS7003;30602;51.060;17.226;2023-05-10T16:36:38;5;5;4
44871;PMS7003;30602;51.060;17.226;2023-05-10T16:39:59;5;4;3
44871;PMS7003;30602;51.060;17.226;2023-05-10T16:44:11;4;4;4
44871;PMS7003;30602;51.060;17.226;2023-05-10T16:48:01;7;5;4
44871;PMS7003;30602;51.060;17.226;2023-05-10T16:51:53;3;3;3
44871;PMS7003;30602;51.060;17.226;2023-05-10T16:55:39;4;3;3
44871;PMS7003;30602;51.060;17.226;2023-05-10T17:03:37;5;5;4
44871;PMS7003;30602;51.060;17.226;2023-05-10T17:07:11;5;5;4
44871;PMS7003;30602;51.060;17.226;2023-05-10T17:11:01;6;5;5
44871;PMS7003;30602;51.060;17.226;2023-05-10T17:14:24;6;5;5
44871;PMS7003;30602;51.060;17.226;2023-05-10T17:18:06;5;4;4
44871;PMS7003;30602;51.060;17.226;2023-05-10T17:21:59;6;4;4
44871;PMS7003;30602;51.060;17.226;2023-05-10T17:25:41;6;6;4
44871;PMS7003;30602;51.060;17.226;2023-05-10T17:29:26;7;6;5
44871;PMS7003;30602;51.060;17.226;2023-05-10T17:33:41;8;5;4
44871;PMS7003;30602;51.060;17.226;2023-05-10T17:37:34;6;4;4
44871;PMS7003;30602;51.060;17.226;2023-05-10T17:41:11;4;4;4
44871;PMS7003;30602;51.060;17.226;2023-05-10T17:44:32;5;5;4
44871;PMS7003;30602;51.060;17.226;2023-05-10T17:48:11;5;5;5
44871;PMS7003;30602;51.060;17.226;2023-05-10T17:51:52;6;4;4
44871;PMS7003;30602;51.060;17.226;2023-05-10T17:55:15;6;5;4
44871;PMS7003;30602;51.060;17.226;2023-05-10T17:58:49;6;5;4
44871;PMS7003;30602;51.060;17.226;2023-05-10T18:02:40;4;4;3
44871;PMS7003;30602;51.060;17.226;2023-05-10T18:07:05;6;5;4
44871;PMS7003;30602;51.060;17.226;2023-05-10T18:10:38;8;6;5
44871;PMS7003;30602;51.060;17.226;2023-05-10T18:14:01;5;4;3
44871;PMS7003;30602;51.060;17.226;2023-05-10T18:17:47;7;6;4
44871;PMS7003;30602;51.060;17.226;2023-05-10T18:21:47;11;7;6
44871;PMS7003;30602;51.060;17.226;2023-05-10T18:25:08;7;6;5
44871;PMS7003;30602;51.060;17.226;2023-05-10T18:28:28;9;7;6
44871;PMS7003;30602;51.060;17.226;2023-05-10T18:31:55;7;6;5
44871;PMS7003;30602;51.060;17.226;2023-05-10T18:35:52;5;5;5
44871;PMS7003;30602;51.060;17.226;2023-05-10T18:39:12;5;5;4
44871;PMS7003;30602;51.060;17.226;2023-05-10T18:42:48;7;6;5
44871;PMS7003;30602;51.060;17.226;2023-05-10T18:46:43;6;6;5
44871;PMS7003;30602;51.060;17.226;2023-05-10T18:50:05;9;7;6
44871;PMS7003;30602;51.060;17.226;2023-05-10T18:53:27;9;9;8
44871;PMS7003;30602;51.060;17.226;2023-05-10T18:57:29;12;8;7
44871;PMS7003;30602;51.060;17.226;2023-05-10T19:01:55;15;10;7
44871;PMS7003;30602;51.060;17.226;2023-05-10T19:05:46;10;10;8
44871;PMS7003;30602;51.060;17.226;2023-05-10T19:09:29;10;10;9
44871;PMS7003;30602;51.060;17.226;2023-05-10T19:13:28;14;12;11
44871;PMS7003;30602;51.060;17.226;2023-05-10T19:17:30;14;12;9
44871;PMS7003;30602;51.060;17.226;2023-05-10T19:20:49;16;14;11
44871;PMS7003;30602;51.060;17.226;2023-05-10T19:24:38;32;30;23
44871;PMS7003;30602;51.060;17.226;2023-05-10T19:28:02;21;14;11
44871;PMS7003;30602;51.060;17.226;2023-05-10T19:35:14;13;11;10
44871;PMS7003;30602;51.060;17.226;2023-05-10T19:39:25;13;10;9
44871;PMS7003;30602;51.060;17.226;2023-05-10T19:42:45;13;13;11
44871;PMS7003;30602;51.060;17.226;2023-05-10T19:46:47;17;15;11
44871;PMS7003;30602;51.060;17.226;2023-05-10T19:50:06;15;14;11
44871;PMS7003;30602;51.060;17.226;2023-05-10T19:53:56;15;15;12
44871;PMS7003;30602;51.060;17.226;2023-05-10T19:57:37;15;14;11
44871;PMS7003;30602;51.060;17.226;2023-05-10T20:00:59;18;16;13
44871;PMS7003;30602;51.060;17.226;2023-05-10T20:04:24;18;16;13
44871;PMS7003;30602;51.060;17.226;2023-05-10T20:12:56;16;15;11
44871;PMS7003;30602;51.060;17.226;2023-05-10T20:16:48;15;13;10
44871;PMS7003;30602;51.060;17.226;2023-05-10T20:20:26;18;12;8
44871;PMS7003;30602;51.060;17.226;2023-05-10T20:23:45;15;13;12
44871;PMS7003;30602;51.060;17.226;2023-05-10T20:27:27;16;13;11
44871;PMS7003;30602;51.060;17.226;2023-05-10T20:31:09;15;13;11
44871;PMS7003;30602;51.060;17.226;2023-05-10T20:34:33;16;15;11
44871;PMS7003;30602;51.060;17.226;2023-05-10T20:38:09;14;14;10
44871;PMS7003;30602;51.060;17.226;2023-05-10T20:41:51;14;13;10
44871;PMS7003;30602;51.060;17.226;2023-05-10T20:45:32;12;12;9
44871;PMS7003;30602;51.060;17.226;2023-05-10T20:49:13;14;13;11
44871;PMS7003;30602;51.060;17.226;2023-05-10T20:52:57;13;13;10
44871;PMS7003;30602;51.060;17.226;2023-05-10T20:56:35;12;11;9
44871;PMS7003;30602;51.060;17.226;2023-05-10T20:59:56;13;13;10
44871;PMS7003;30602;51.060;17.226;2023-05-10T21:03:20;16;12;10
44871;PMS7003;30602;51.060;17.226;2023-05-10T21:07:10;13;11;9
44871;PMS7003;30602;51.060;17.226;2023-05-10T21:11:20;14;12;9
44871;PMS7003;30602;51.060;17.226;2023-05-10T21:15:03;14;13;10
44871;PMS7003;30602;51.060;17.226;2023-05-10T21:18:41;14;13;10
44871;PMS7003;30602;51.060;17.226;2023-05-10T21:22:22;15;10;9
44871;PMS7003;30602;51.060;17.226;2023-05-10T21:26:02;13;11;9
44871;PMS7003;30602;51.060;17.226;2023-05-10T21:29:43;18;14;11
44871;PMS7003;30602;51.060;17.226;2023-05-10T21:33:39;13;11;10
44871;PMS7003;30602;51.060;17.226;2023-05-10T21:37:36;11;11;9
44871;PMS7003;30602;51.060;17.226;2023-05-10T21:40:54;12;10;8
44871;PMS7003;30602;51.060;17.226;2023-05-10T21:44:33;10;9;8
44871;PMS7003;30602;51.060;17.226;2023-05-10T21:48:14;11;9;8
44871;PMS7003;30602;51.060;17.226;2023-05-10T21:51:37;11;11;9
44871;PMS7003;30602;51.060;17.226;2023-05-10T21:55:32;11;9;7
44871;PMS7003;30602;51.060;17.226;2023-05-10T21:59:38;13;10;8
44871;PMS7003;30602;51.060;17.226;2023-05-10T22:03:12;11;8;7
44871;PMS7003;30602;51.060;17.226;2023-05-10T22:06:54;10;8;7
44871;PMS7003;30602;51.060;17.226;2023-05-10T22:11:09;10;8;7
44871;PMS7003;30602;51.060;17.226;2023-05-10T22:14:32;11;10;6
44871;PMS7003;30602;51.060;17.226;2023-05-10T22:18:34;8;8;7
44871;PMS7003;30602;51.060;17.226;2023-05-10T22:22:15;9;8;7
44871;PMS7003;30602;51.060;17.226;2023-05-10T22:26:00;8;8;7
44871;PMS7003;30602;51.060;17.226;2023-05-10T22:29:39;10;10;7
44871;PMS7003;30602;51.060;17.226;2023-05-10T22:33:03;10;8;7
44871;PMS7003;30602;51.060;17.226;2023-05-10T22:36:25;13;10;8
44871;PMS7003;30602;51.060;17.226;2023-05-10T22:40:12;9;9;7
44871;PMS7003;30602;51.060;17.226;2023-05-10T22:43:49;10;7;6
44871;PMS7003;30602;51.060;17.226;2023-05-10T22:47:13;10;9;7
44871;PMS7003;30602;51.060;17.226;2023-05-10T22:50:50;11;11;8
44871;PMS7003;30602;51.060;17.226;2023-05-10T22:54:37;13;11;10
44871;PMS7003;30602;51.060;17.226;2023-05-10T22:57:59;9;9;8
44871;PMS7003;30602;51.060;17.226;2023-05-10T23:01:19;10;10;8
44871;PMS7003;30602;51.060;17.226;2023-05-10T23:04:59;12;12;8
44871;PMS7003;30602;51.060;17.226;2023-05-10T23:08:30;10;9;7
44871;PMS7003;30602;51.060;17.226;2023-05-10T23:12:44;11;10;8
44871;PMS7003;30602;51.060;17.226;2023-05-10T23:17:20;12;11;9
44871;PMS7003;30602;51.060;17.226;2023-05-10T23:21:04;13;11;9
44871;PMS7003;30602;51.060;17.226;2023-05-10T23:24:37;11;11;9
44871;PMS7003;30602;51.060;17.226;2023-05-10T23:28:20;13;9;7
44871;PMS7003;30602;51.060;17.226;2023-05-10T23:31:43;11;11;9
44871;PMS7003;30602;51.060;17.226;2023-05-10T23:35:24;12;10;8
44871;PMS7003;30602;51.060;17.226;2023-05-10T23:39:12;13;12;10
44871;PMS7003;30602;51.060;17.226;2023-05-10T23:42:55;15;14;9
44871;PMS7003;30602;51.060;17.226;2023-05-10T23:46:11;15;12;9
44871;PMS7003;30602;51.060;17.226;2023-05-10T23:50:16;18;15;12
44871;PMS7003;30602;51.060;17.226;2023-05-10T23:54:30;13;12;10
44871;PMS7003;30602;51.060;17.226;2023-05-10T23:58:29;17;14;10
